Time;durP1;ratioP1;P1;durP2;ratioP2;P2;SDS_P1;SDS_P2;PMS_P1;PMS_P2;Temp;Humidity;BMP_temperature;BMP_pressure;BME280_temperature;BME280_humidity;BME280_pressure;Samples;Min_cycle;Max_cycle;Signal;HPM_P1;HPM_P2
2023/11/30 00:00:03;;;;;;;0.87;0.63;;;0.90;99.90;;;;;;5034801;28;20450;-79
2023/11/30 00:02:32;;;;;;;0.97;0.97;;;0.90;99.90;;;;;;5034652;28;20446;-78
2023/11/30 00:05:00;;;;;;;0.43;0.43;;;0.90;99.90;;;;;;5034035;28;20497;-79
2023/11/30 00:07:26;;;;;;;0.60;0.60;;;0.90;99.90;;;;;;5034264;28;20949;-78
2023/11/30 00:09:53;;;;;;;0.50;0.50;;;0.90;99.90;;;;;;5034554;28;20449;-78
2023/11/30 00:12:20;;;;;;;2.80;0.83;;;0.90;99.90;;;;;;5034231;28;20431;-78
2023/11/30 00:14:46;;;;;;;2.10;0.87;;;0.90;99.90;;;;;;5034375;28;20824;-79
2023/11/30 00:17:13;;;;;;;1.33;0.70;;;0.90;99.90;;;;;;5034017;28;20446;-78
2023/11/30 00:19:40;;;;;;;0.93;0.60;;;0.90;99.90;;;;;;5035068;28;20442;-78
2023/11/30 00:22:08;;;;;;;0.77;0.77;;;0.90;99.90;;;;;;5034495;28;20447;-78
2023/11/30 00:24:35;;;;;;;0.43;0.43;;;0.80;99.90;;;;;;5033847;28;21014;-78
2023/11/30 00:27:01;;;;;;;1.20;0.90;;;0.80;99.90;;;;;;5034373;28;20442;-78
2023/11/30 00:29:28;;;;;;;2.00;1.40;;;0.80;99.90;;;;;;5034283;28;20822;-78
2023/11/30 00:31:55;;;;;;;8.57;0.60;;;0.90;99.90;;;;;;5034118;28;20442;-78
2023/11/30 00:34:21;;;;;;;4.43;1.33;;;0.90;99.90;;;;;;5033896;28;20806;-79
2023/11/30 00:36:48;;;;;;;0.50;0.50;;;0.90;99.90;;;;;;5033801;28;20431;-78
2023/11/30 00:39:16;;;;;;;1.43;0.90;;;0.90;99.90;;;;;;5033796;28;20454;-78
2023/11/30 00:41:43;;;;;;;0.50;0.50;;;0.90;99.90;;;;;;5034067;28;20450;-78
2023/11/30 00:44:10;;;;;;;7.17;1.23;;;1.00;99.90;;;;;;5035210;28;20494;-79
2023/11/30 00:46:36;;;;;;;0.60;0.60;;;0.90;99.90;;;;;;5035727;28;20434;-79
2023/11/30 00:49:03;;;;;;;1.10;0.53;;;0.90;99.90;;;;;;5035937;28;20451;-78
2023/11/30 00:51:30;;;;;;;0.43;0.43;;;0.90;99.90;;;;;;5035970;28;20442;-78
2023/11/30 00:53:57;;;;;;;1.40;1.00;;;1.00;99.90;;;;;;5034633;28;20454;-79
2023/11/30 00:56:25;;;;;;;2.17;0.70;;;0.90;99.90;;;;;;5033850;28;20447;-79
2023/11/30 00:58:51;;;;;;;1.27;0.60;;;1.00;99.90;;;;;;5033571;28;20439;-79
2023/11/30 01:01:18;;;;;;;2.83;1.27;;;1.00;99.90;;;;;;5034007;28;20438;-79
2023/11/30 01:03:45;;;;;;;0.70;0.70;;;0.90;99.90;;;;;;5033671;28;20482;-79
2023/11/30 01:06:12;;;;;;;0.77;0.77;;;1.00;99.90;;;;;;5033690;28;20481;-79
2023/11/30 01:08:38;;;;;;;2.47;0.77;;;0.90;99.90;;;;;;5033623;28;20827;-79
2023/11/30 01:11:06;;;;;;;0.97;0.93;;;1.00;99.90;;;;;;5033654;28;20442;-79
2023/11/30 01:13:34;;;;;;;1.00;1.00;;;1.00;99.90;;;;;;5033192;28;20948;-78
2023/11/30 01:16:01;;;;;;;3.50;1.20;;;1.00;99.90;;;;;;5033871;28;20473;-78
2023/11/30 01:18:27;;;;;;;1.27;0.70;;;1.10;99.90;;;;;;5033454;28;20446;-78
2023/11/30 01:20:54;;;;;;;8.87;1.03;;;1.00;99.90;;;;;;5033495;28;20812;-78
2023/11/30 01:23:21;;;;;;;1.80;0.70;;;1.00;99.90;;;;;;5033338;28;20442;-78
2023/11/30 01:25:47;;;;;;;0.70;0.63;;;1.00;99.90;;;;;;5033204;28;20835;-79
2023/11/30 01:28:14;;;;;;;0.93;0.90;;;0.90;99.90;;;;;;5033340;28;20447;-79
2023/11/30 01:30:42;;;;;;;0.40;0.40;;;0.90;99.90;;;;;;5037391;28;20966;-79
2023/11/30 01:33:09;;;;;;;2.97;0.70;;;0.80;99.90;;;;;;5037502;28;20443;-78
2023/11/30 01:35:35;;;;;;;0.60;0.60;;;0.80;99.90;;;;;;5037248;28;20804;-79
2023/11/30 01:38:02;;;;;;;1.17;0.87;;;0.80;99.90;;;;;;5037419;28;20443;-79
2023/11/30 01:40:29;;;;;;;3.90;1.13;;;0.70;99.90;;;;;;5037353;28;20465;-78
2023/11/30 01:42:56;;;;;;;0.60;0.60;;;0.70;99.90;;;;;;5037360;28;20446;-78
2023/11/30 01:45:22;;;;;;;0.50;0.50;;;0.70;99.90;;;;;;5036631;28;21042;-78
2023/11/30 01:47:50;;;;;;;2.07;1.20;;;0.70;99.90;;;;;;5037094;28;20455;-78
2023/11/30 01:50:18;;;;;;;0.73;0.70;;;0.70;99.90;;;;;;5037444;28;20448;-78
2023/11/30 01:52:45;;;;;;;2.53;0.93;;;0.70;99.90;;;;;;5037300;28;20458;-79
2023/11/30 01:55:13;;;;;;;1.47;1.37;;;0.70;99.90;;;;;;5037081;28;20454;-79
2023/11/30 01:57:41;;;;;;;1.03;1.03;;;0.70;99.90;;;;;;5037001;28;20446;-79
2023/11/30 02:00:09;;;;;;;1.13;0.60;;;0.70;99.90;;;;;;5036905;28;20446;-79
2023/11/30 02:02:37;;;;;;;0.57;0.53;;;0.60;99.90;;;;;;5037011;28;20465;-78
2023/11/30 02:05:07;;;;;;;0.53;0.50;;;0.60;99.90;;;;;;5036789;28;20859;-78
2023/11/30 02:07:33;;;;;;;4.10;1.17;;;0.60;99.90;;;;;;5037855;28;20450;-78
2023/11/30 02:10:00;;;;;;;1.90;1.80;;;0.50;99.90;;;;;;5036428;28;20443;-78
2023/11/30 02:12:27;;;;;;;2.20;0.57;;;0.50;99.90;;;;;;5036493;28;20953;-78
2023/11/30 02:14:54;;;;;;;1.23;0.93;;;0.50;99.90;;;;;;5036213;28;20466;-79
2023/11/30 02:17:20;;;;;;;2.07;1.97;;;0.50;99.90;;;;;;5036480;28;20446;-79
2023/11/30 02:19:47;;;;;;;0.60;0.60;;;0.50;99.90;;;;;;5036373;28;20450;-79
2023/11/30 02:22:15;;;;;;;0.80;0.80;;;0.50;99.90;;;;;;5036473;28;20442;-78
2023/11/30 02:24:42;;;;;;;0.73;0.73;;;0.50;99.90;;;;;;5036270;28;20497;-79
2023/11/30 02:27:08;;;;;;;0.40;0.40;;;0.50;99.90;;;;;;5036439;28;20438;-79
2023/11/30 02:29:35;;;;;;;0.77;0.77;;;0.50;99.90;;;;;;5036213;28;20811;-79
2023/11/30 02:32:02;;;;;;;2.93;0.97;;;0.40;99.90;;;;;;5037085;28;20446;-78
2023/11/30 02:34:29;;;;;;;0.40;0.33;;;0.50;99.90;;;;;;5035872;28;20983;-78
2023/11/30 02:36:55;;;;;;;1.20;0.83;;;0.50;99.90;;;;;;5036193;28;20446;-78
2023/11/30 02:39:23;;;;;;;0.83;0.60;;;0.50;99.90;;;;;;5035669;28;20447;-78
2023/11/30 02:41:50;;;;;;;0.70;0.40;;;0.50;99.90;;;;;;5036263;28;20457;-78
2023/11/30 02:44:17;;;;;;;0.97;0.60;;;0.60;99.90;;;;;;5035538;28;20490;-79
2023/11/30 02:46:44;;;;;;;1.17;1.17;;;0.60;99.90;;;;;;5036051;28;20426;-79
2023/11/30 02:49:10;;;;;;;2.43;0.77;;;0.60;99.90;;;;;;5035963;28;20438;-79
2023/11/30 02:51:37;;;;;;;0.57;0.57;;;0.60;99.90;;;;;;5036031;28;20457;-79
2023/11/30 02:54:04;;;;;;;0.60;0.60;;;0.60;99.90;;;;;;5035888;28;20451;-79
2023/11/30 02:56:39;;;;;;;1.00;0.80;;;0.60;99.90;;;;;;5035983;28;20823;-78
2023/11/30 02:59:05;;;;;;;2.07;1.37;;;0.70;99.90;;;;;;5035899;28;20419;-78
2023/11/30 03:01:32;;;;;;;0.60;0.57;;;0.60;99.90;;;;;;5035642;28;20439;-78
2023/11/30 03:03:59;;;;;;;0.50;0.40;;;0.70;99.90;;;;;;5035654;28;20447;-79
2023/11/30 03:06:26;;;;;;;1.17;0.67;;;0.60;99.90;;;;;;5035463;28;20446;-79
2023/11/30 03:08:52;;;;;;;1.63;0.67;;;0.60;99.90;;;;;;5035521;28;20469;-79
2023/11/30 03:11:19;;;;;;;0.97;0.80;;;0.50;99.90;;;;;;5035908;28;20454;-78
2023/11/30 03:13:47;;;;;;;1.43;0.50;;;0.50;99.90;;;;;;5035600;28;20473;-78
2023/11/30 03:16:14;;;;;;;0.40;0.40;;;0.50;99.90;;;;;;5035483;28;20451;-79
2023/11/30 03:18:40;;;;;;;1.13;1.10;;;0.50;99.90;;;;;;5035387;28;20442;-78
2023/11/30 03:21:16;;;;;;;0.50;0.50;;;0.60;99.90;;;;;;5035105;28;20442;-78
2023/11/30 03:23:43;;;;;;;1.63;0.60;;;0.60;99.90;;;;;;5035413;28;20426;-78
2023/11/30 03:26:10;;;;;;;1.27;0.80;;;0.70;99.90;;;;;;5035249;28;20482;-78
2023/11/30 03:28:37;;;;;;;0.97;0.83;;;0.60;99.90;;;;;;5035202;28;20446;-78
2023/11/30 03:31:05;;;;;;;1.13;0.83;;;0.60;99.90;;;;;;5035157;28;20450;-78
2023/11/30 03:33:32;;;;;;;0.80;0.40;;;0.60;99.90;;;;;;5035126;28;20447;-78
2023/11/30 03:35:58;;;;;;;0.50;0.40;;;0.60;99.90;;;;;;5034841;28;20459;-79
2023/11/30 03:38:25;;;;;;;1.60;1.50;;;0.60;99.90;;;;;;5035198;28;20472;-79
2023/11/30 03:40:52;;;;;;;5.30;1.43;;;0.60;99.90;;;;;;5035053;28;20450;-79
2023/11/30 03:43:19;;;;;;;3.70;1.27;;;0.60;99.90;;;;;;5034683;28;20450;-79
2023/11/30 03:45:45;;;;;;;5.63;1.67;;;0.60;99.90;;;;;;5034251;28;20490;-79
2023/11/30 03:48:13;;;;;;;0.90;0.90;;;0.60;99.90;;;;;;5034963;28;20442;-79
2023/11/30 03:50:40;;;;;;;4.20;1.70;;;0.60;99.90;;;;;;5034873;28;20443;-79
2023/11/30 03:53:07;;;;;;;0.60;0.60;;;0.50;99.90;;;;;;5034231;28;20439;-78
2023/11/30 03:55:34;;;;;;;0.40;0.40;;;0.60;99.90;;;;;;5034473;28;20466;-79
2023/11/30 03:58:00;;;;;;;1.53;0.67;;;0.50;99.90;;;;;;5034803;28;20442;-79
2023/11/30 04:00:27;;;;;;;0.53;0.53;;;0.60;99.90;;;;;;5034699;28;20443;-78
2023/11/30 04:02:54;;;;;;;1.40;0.80;;;0.60;99.90;;;;;;5034651;28;20468;-78
2023/11/30 04:05:22;;;;;;;1.87;0.80;;;0.60;99.90;;;;;;5034302;28;20482;-78
2023/11/30 04:07:49;;;;;;;2.40;2.30;;;0.60;99.90;;;;;;5034525;28;20439;-78
2023/11/30 04:10:15;;;;;;;0.70;0.70;;;0.60;99.90;;;;;;5034461;28;20454;-78
2023/11/30 04:12:42;;;;;;;3.93;0.60;;;0.70;99.90;;;;;;5034207;28;20943;-78
2023/11/30 04:15:10;;;;;;;2.83;0.70;;;0.70;99.90;;;;;;5034189;28;20521;-79
2023/11/30 04:17:36;;;;;;;1.10;0.97;;;0.60;99.90;;;;;;5034527;28;20816;-79
2023/11/30 04:20:03;;;;;;;0.60;0.60;;;0.70;99.90;;;;;;5034270;28;20446;-79
2023/11/30 04:22:31;;;;;;;0.93;0.87;;;0.70;99.90;;;;;;5034353;28;20447;-79
2023/11/30 04:24:58;;;;;;;2.07;1.00;;;0.70;99.90;;;;;;5034126;28;20486;-79
2023/11/30 04:27:25;;;;;;;2.70;0.87;;;0.60;99.90;;;;;;5034198;28;20443;-79
2023/11/30 04:29:51;;;;;;;0.67;0.67;;;0.70;99.90;;;;;;5034156;28;20450;-79
2023/11/30 04:32:18;;;;;;;2.13;1.77;;;0.80;99.90;;;;;;5034197;28;20446;-78
2023/11/30 04:34:45;;;;;;;0.77;0.63;;;0.70;99.90;;;;;;5033657;28;20983;-79
2023/11/30 04:37:12;;;;;;;0.40;0.40;;;0.80;99.90;;;;;;5034039;28;20453;-78
2023/11/30 04:39:40;;;;;;;3.20;0.83;;;0.80;99.90;;;;;;5033814;28;20454;-78
2023/11/30 04:42:07;;;;;;;1.40;1.30;;;0.80;99.90;;;;;;5034012;28;20442;-78
2023/11/30 04:44:33;;;;;;;0.90;0.80;;;0.90;99.90;;;;;;5033607;28;20502;-79
2023/11/30 04:47:00;;;;;;;0.63;0.63;;;0.90;99.90;;;;;;5034098;28;20446;-78
2023/11/30 04:49:27;;;;;;;1.40;1.20;;;0.90;99.90;;;;;;5034022;28;20449;-78
2023/11/30 04:51:54;;;;;;;2.47;0.73;;;0.90;99.90;;;;;;5034939;28;20824;-78
2023/11/30 04:54:20;;;;;;;2.63;1.57;;;0.80;99.90;;;;;;5034016;28;20458;-79
2023/11/30 04:56:48;;;;;;;0.60;0.50;;;0.90;99.90;;;;;;5033876;28;20553;-78
2023/11/30 04:59:15;;;;;;;1.53;1.43;;;0.90;99.90;;;;;;5033825;28;20529;-78
2023/11/30 05:01:42;;;;;;;0.70;0.60;;;0.90;99.90;;;;;;5033892;28;20442;-78
2023/11/30 05:04:09;;;;;;;0.90;0.60;;;0.80;99.90;;;;;;5034182;28;20477;-78
2023/11/30 05:06:35;;;;;;;2.07;1.10;;;0.70;99.90;;;;;;5033593;28;20845;-79
2023/11/30 05:09:02;;;;;;;1.70;1.60;;;0.70;99.90;;;;;;5033737;28;20454;-79
2023/11/30 05:11:29;;;;;;;0.50;0.50;;;0.70;99.90;;;;;;5033607;28;20442;-79
2023/11/30 05:13:58;;;;;;;0.83;0.83;;;0.70;99.90;;;;;;5033459;28;20443;-79
2023/11/30 05:16:25;;;;;;;0.60;0.40;;;0.70;99.90;;;;;;5033588;28;20443;-79
2023/11/30 05:18:52;;;;;;;1.33;1.10;;;0.60;99.90;;;;;;5033523;28;20447;-79
2023/11/30 05:21:19;;;;;;;2.47;1.23;;;0.60;99.90;;;;;;5033542;28;20442;-79
2023/11/30 05:23:45;;;;;;;1.73;1.63;;;0.60;99.90;;;;;;5033119;28;20948;-79
2023/11/30 05:26:12;;;;;;;2.00;1.17;;;0.50;99.90;;;;;;5033411;28;20457;-79
2023/11/30 05:28:39;;;;;;;0.70;0.70;;;0.50;99.90;;;;;;5033395;28;20447;-79
2023/11/30 05:31:08;;;;;;;0.33;0.33;;;0.50;99.90;;;;;;5033420;28;20454;-79
2023/11/30 05:33:34;;;;;;;0.83;0.83;;;0.50;99.90;;;;;;5033429;28;20810;-78
2023/11/30 05:36:01;;;;;;;2.30;0.80;;;0.50;99.90;;;;;;5033467;28;20470;-79
2023/11/30 05:38:28;;;;;;;0.70;0.70;;;0.50;99.90;;;;;;5033344;28;20442;-79
2023/11/30 05:40:55;;;;;;;2.93;0.93;;;0.50;99.90;;;;;;5033383;28;20447;-79
2023/11/30 05:43:22;;;;;;;0.60;0.40;;;0.50;99.90;;;;;;5033431;28;20470;-79
2023/11/30 05:45:48;;;;;;;0.50;0.50;;;0.60;99.90;;;;;;5032672;28;21002;-79
2023/11/30 05:48:16;;;;;;;1.17;1.07;;;0.70;99.90;;;;;;5033433;28;20451;-79
2023/11/30 05:50:43;;;;;;;0.77;0.60;;;0.70;99.90;;;;;;5033219;28;20947;-79
2023/11/30 05:53:10;;;;;;;0.40;0.40;;;0.80;99.90;;;;;;5033252;28;20537;-79
2023/11/30 05:55:37;;;;;;;0.90;0.90;;;0.80;99.90;;;;;;5033404;28;20467;-79
2023/11/30 05:58:03;;;;;;;0.83;0.40;;;0.90;99.90;;;;;;5033312;28;20812;-79
2023/11/30 06:00:30;;;;;;;0.80;0.80;;;0.90;99.90;;;;;;5033258;28;20454;-79
2023/11/30 06:02:57;;;;;;;1.03;0.83;;;0.90;99.90;;;;;;5033214;28;20442;-79
2023/11/30 06:05:25;;;;;;;0.53;0.53;;;1.00;99.90;;;;;;5032645;28;21002;-79
2023/11/30 06:07:51;;;;;;;2.53;1.80;;;1.00;99.90;;;;;;5033261;28;20446;-79
2023/11/30 06:10:18;;;;;;;2.90;0.87;;;1.00;99.90;;;;;;5033234;28;20492;-79
2023/11/30 06:12:45;;;;;;;1.00;1.00;;;1.00;99.90;;;;;;5033126;28;20447;-79
2023/11/30 06:15:13;;;;;;;1.93;1.27;;;1.10;99.90;;;;;;5034569;28;20459;-79
2023/11/30 06:17:39;;;;;;;0.87;0.60;;;1.10;99.90;;;;;;5037000;28;20450;-78
2023/11/30 06:20:10;;;;;;;0.87;0.70;;;1.10;99.90;;;;;;5036682;28;20953;-78
2023/11/30 06:22:38;;;;;;;1.23;0.90;;;0.90;99.90;;;;;;5037208;28;20442;-78
2023/11/30 06:25:05;;;;;;;1.43;0.80;;;1.00;99.90;;;;;;5036742;28;20470;-79
2023/11/30 06:27:32;;;;;;;3.70;1.00;;;1.00;99.90;;;;;;5037056;28;20446;-79
2023/11/30 06:29:59;;;;;;;0.40;0.40;;;1.00;99.90;;;;;;5036752;28;20446;-79
2023/11/30 06:32:26;;;;;;;0.50;0.50;;;1.10;99.90;;;;;;5036614;28;20449;-79
2023/11/30 06:34:53;;;;;;;2.87;1.57;;;1.10;99.90;;;;;;5036600;28;20477;-79
2023/11/30 06:37:19;;;;;;;1.10;0.93;;;1.10;99.90;;;;;;5036510;28;20970;-79
2023/11/30 06:39:47;;;;;;;1.60;1.30;;;1.00;99.90;;;;;;5037075;28;20449;-79
2023/11/30 06:42:14;;;;;;;1.30;1.23;;;1.10;99.90;;;;;;5036749;28;20442;-79
2023/11/30 06:44:44;;;;;;;0.60;0.50;;;1.10;99.90;;;;;;5036374;28;20490;-79
2023/11/30 06:47:11;;;;;;;0.90;0.77;;;1.10;99.90;;;;;;5036511;28;20483;-79
2023/11/30 06:49:37;;;;;;;0.73;0.40;;;1.20;99.90;;;;;;5036368;28;20852;-79
2023/11/30 06:52:05;;;;;;;1.90;0.90;;;1.10;99.90;;;;;;5036783;28;20442;-79
2023/11/30 06:54:31;;;;;;;0.97;0.97;;;1.20;99.90;;;;;;5036114;28;20835;-79
2023/11/30 06:57:00;;;;;;;0.80;0.80;;;1.20;99.90;;;;;;5035954;28;20450;-79
2023/11/30 06:59:26;;;;;;;0.40;0.33;;;1.20;99.90;;;;;;5036278;28;20447;-79
2023/11/30 07:01:53;;;;;;;2.37;1.97;;;1.20;99.90;;;;;;5036319;28;20449;-79
2023/11/30 07:04:20;;;;;;;2.43;1.33;;;1.20;99.90;;;;;;5038640;28;20466;-79
2023/11/30 07:06:46;;;;;;;0.83;0.83;;;1.20;99.90;;;;;;5036621;28;20478;-78
2023/11/30 07:09:13;;;;;;;0.70;0.60;;;1.20;99.90;;;;;;5035929;28;20940;-78
2023/11/30 07:11:40;;;;;;;0.83;0.77;;;1.20;99.90;;;;;;5035977;28;20443;-78
2023/11/30 07:14:08;;;;;;;1.43;1.10;;;1.20;99.90;;;;;;5036081;28;20438;-79
2023/11/30 07:16:35;;;;;;;1.67;1.17;;;1.10;99.90;;;;;;5036058;28;20443;-78
2023/11/30 07:19:02;;;;;;;1.13;1.13;;;1.20;99.90;;;;;;5035838;28;20438;-78
2023/11/30 07:21:29;;;;;;;2.87;1.20;;;1.20;99.90;;;;;;5035696;28;20446;-78
2023/11/30 07:23:56;;;;;;;3.07;0.80;;;1.20;99.90;;;;;;5035033;28;20931;-79
2023/11/30 07:26:23;;;;;;;0.50;0.50;;;1.20;99.90;;;;;;5034000;28;20482;-78
2023/11/30 07:28:49;;;;;;;4.33;1.17;;;1.20;99.90;;;;;;5037302;28;20447;-78
2023/11/30 07:31:21;;;;;;;4.40;1.50;;;1.30;99.90;;;;;;5036180;28;20462;-78
2023/11/30 07:33:48;;;;;;;4.77;1.73;;;1.20;99.90;;;;;;5035458;28;20453;-78
2023/11/30 07:36:15;;;;;;;1.43;1.33;;;1.30;99.90;;;;;;5035415;28;20943;-78
2023/11/30 07:38:42;;;;;;;0.83;0.50;;;1.30;99.90;;;;;;5035407;28;20447;-78
2023/11/30 07:41:09;;;;;;;0.63;0.63;;;1.30;99.90;;;;;;5035426;28;20800;-77
2023/11/30 07:43:36;;;;;;;1.33;1.23;;;1.40;99.90;;;;;;5035129;28;20454;-78
2023/11/30 07:46:03;;;;;;;2.63;1.40;;;1.40;99.90;;;;;;5034992;28;20530;-78
2023/11/30 07:48:32;;;;;;;2.00;0.70;;;1.50;99.90;;;;;;5035359;28;20447;-78
2023/11/30 07:51:00;;;;;;;2.47;0.70;;;1.50;99.90;;;;;;5059891;22;20447;-76
2023/11/30 07:53:26;;;;;;;0.60;0.60;;;1.50;99.90;;;;;;5035134;28;20446;-77
2023/11/30 07:55:56;;;;;;;0.90;0.80;;;1.50;99.90;;;;;;5034927;28;20423;-77
2023/11/30 07:58:23;;;;;;;5.50;2.43;;;1.60;99.90;;;;;;5034941;28;20537;-77
2023/11/30 08:00:51;;;;;;;0.60;0.60;;;1.60;99.90;;;;;;5034815;28;20504;-77
2023/11/30 08:03:17;;;;;;;1.57;1.47;;;1.60;99.90;;;;;;5036215;28;20462;-77
2023/11/30 08:05:46;;;;;;;1.07;0.57;;;1.70;99.90;;;;;;5034782;28;20486;-77
2023/11/30 08:08:13;;;;;;;1.70;1.50;;;1.70;99.90;;;;;;5034692;28;20459;-77
2023/11/30 08:10:40;;;;;;;2.20;1.43;;;1.70;99.90;;;;;;5035012;28;20439;-77
2023/11/30 08:13:06;;;;;;;2.43;1.40;;;1.70;99.90;;;;;;5034499;28;20516;-77
2023/11/30 08:15:33;;;;;;;0.93;0.70;;;1.70;99.90;;;;;;5034214;28;21044;-77
2023/11/30 08:18:00;;;;;;;1.43;1.30;;;1.80;99.90;;;;;;5034129;28;20431;-77
2023/11/30 08:20:27;;;;;;;1.77;1.40;;;1.80;99.90;;;;;;5034356;28;20446;-77
2023/11/30 08:22:56;;;;;;;2.10;1.30;;;1.80;99.90;;;;;;5034128;28;20463;-77
2023/11/30 08:25:23;;;;;;;1.80;0.83;;;1.80;99.90;;;;;;5034056;28;20938;-77
2023/11/30 08:27:51;;;;;;;1.67;1.00;;;1.90;99.90;;;;;;5034020;28;20943;-77
2023/11/30 08:30:18;;;;;;;1.70;0.50;;;1.90;99.90;;;;;;5034369;28;20786;-77
2023/11/30 08:32:45;;;;;;;2.07;1.43;;;1.90;99.90;;;;;;5034339;28;20524;-77
2023/11/30 08:35:12;;;;;;;4.03;1.73;;;1.90;99.90;;;;;;5034077;28;20883;-77
2023/11/30 08:37:38;;;;;;;2.40;0.83;;;1.80;99.90;;;;;;5034235;28;20450;-77
2023/11/30 08:40:10;;;;;;;1.23;0.97;;;1.80;99.90;;;;;;5034273;28;20450;-77
2023/11/30 08:42:37;;;;;;;3.13;1.60;;;1.90;99.90;;;;;;5034104;28;20475;-77
2023/11/30 08:45:04;;;;;;;0.83;0.80;;;1.90;99.90;;;;;;5034033;28;20450;-77
2023/11/30 08:47:31;;;;;;;2.17;1.30;;;1.90;99.90;;;;;;5033710;28;21010;-77
2023/11/30 08:49:58;;;;;;;2.27;2.10;;;2.00;99.90;;;;;;5034239;28;20446;-77
2023/11/30 08:52:25;;;;;;;3.57;1.30;;;2.00;99.90;;;;;;5033570;28;20478;-77
2023/11/30 08:54:52;;;;;;;0.97;0.97;;;2.00;99.90;;;;;;5033965;28;20442;-76
2023/11/30 08:57:20;;;;;;;5.03;2.03;;;2.00;99.90;;;;;;5034276;28;20469;-77
2023/11/30 08:59:49;;;;;;;0.93;0.93;;;2.00;99.90;;;;;;5034104;28;20441;-77
2023/11/30 09:02:16;;;;;;;2.67;1.40;;;2.00;99.90;;;;;;5033984;28;20498;-78
2023/11/30 09:04:42;;;;;;;3.10;1.37;;;2.10;99.90;;;;;;5033875;28;20458;-78
2023/11/30 09:07:09;;;;;;;3.13;1.60;;;2.20;99.90;;;;;;5033837;28;20489;-77
2023/11/30 09:09:36;;;;;;;1.10;0.70;;;2.20;99.90;;;;;;5033553;28;20439;-78
2023/11/30 09:12:03;;;;;;;5.33;2.07;;;2.30;99.90;;;;;;5033920;28;20994;-77
2023/11/30 09:14:32;;;;;;;6.00;2.17;;;2.30;99.90;;;;;;5033546;28;20450;-77
2023/11/30 09:17:00;;;;;;;5.40;2.40;;;2.40;99.90;;;;;;5033615;28;20447;-77
2023/11/30 09:19:26;;;;;;;2.87;0.83;;;2.40;99.90;;;;;;5033901;28;20465;-77
2023/11/30 09:21:53;;;;;;;5.40;3.43;;;2.50;99.90;;;;;;5033334;28;20446;-77
2023/11/30 09:24:21;;;;;;;1.90;0.93;;;2.50;99.90;;;;;;5033601;28;20478;-77
2023/11/30 09:26:49;;;;;;;0.70;0.70;;;2.70;99.90;;;;;;5033540;28;20490;-77
2023/11/30 09:29:16;;;;;;;1.07;1.00;;;2.70;99.90;;;;;;5033637;28;20501;-77
2023/11/30 09:31:44;;;;;;;2.00;1.43;;;2.80;99.90;;;;;;5033317;28;20843;-77
2023/11/30 09:34:12;;;;;;;1.97;1.40;;;2.90;99.90;;;;;;5033346;28;20989;-77
2023/11/30 09:36:39;;;;;;;1.70;1.60;;;3.00;99.90;;;;;;5033747;28;20443;-77
2023/11/30 09:39:07;;;;;;;1.90;0.87;;;3.00;99.90;;;;;;5033711;28;20443;-78
2023/11/30 09:41:36;;;;;;;5.33;1.00;;;3.00;99.90;;;;;;5034253;28;20520;-78
2023/11/30 09:44:04;;;;;;;2.10;1.43;;;3.10;99.90;;;;;;5039262;28;20450;-79
2023/11/30 09:46:31;;;;;;;0.83;0.80;;;3.20;99.90;;;;;;5037517;28;20474;-78
2023/11/30 09:49:00;;;;;;;2.10;1.00;;;3.20;99.90;;;;;;5035429;28;20442;-78
2023/11/30 09:51:28;;;;;;;0.97;0.67;;;3.30;99.90;;;;;;5038075;28;20488;-78
2023/11/30 09:53:57;;;;;;;3.53;3.23;;;3.30;99.90;;;;;;5039105;28;20449;-78
2023/11/30 09:56:26;;;;;;;1.20;0.97;;;3.40;99.90;;;;;;5039137;28;20461;-78
2023/11/30 09:58:53;;;;;;;1.13;1.03;;;3.40;99.90;;;;;;5037405;28;20461;-78
2023/11/30 10:01:20;;;;;;;1.80;1.47;;;3.50;99.90;;;;;;5038664;28;20462;-78
2023/11/30 10:03:47;;;;;;;4.90;2.00;;;3.50;99.90;;;;;;5037223;28;20455;-78
2023/11/30 10:06:16;;;;;;;2.03;1.37;;;3.60;99.90;;;;;;5036786;28;20445;-78
2023/11/30 10:08:43;;;;;;;3.00;1.47;;;3.60;99.90;;;;;;5036983;28;20449;-77
2023/11/30 10:11:11;;;;;;;2.07;1.37;;;3.50;99.90;;;;;;5036591;28;20431;-78
2023/11/30 10:13:39;;;;;;;1.47;1.37;;;3.40;99.90;;;;;;5037300;28;20441;-78
2023/11/30 10:16:06;;;;;;;2.20;0.70;;;3.30;99.90;;;;;;5036923;28;20454;-78
2023/11/30 10:18:34;;;;;;;2.63;1.17;;;3.30;99.90;;;;;;5037697;28;20447;-78
2023/11/30 10:21:01;;;;;;;1.47;1.00;;;3.30;99.90;;;;;;5036383;28;20981;-78
2023/11/30 10:23:30;;;;;;;1.33;1.23;;;3.30;99.90;;;;;;5036859;28;20461;-78
2023/11/30 10:25:58;;;;;;;3.57;1.10;;;3.20;99.90;;;;;;5036519;28;20446;-78
2023/11/30 10:28:25;;;;;;;5.20;1.90;;;3.20;99.90;;;;;;5036814;28;20478;-78
2023/11/30 10:30:54;;;;;;;2.10;1.50;;;3.20;99.90;;;;;;5036544;28;20427;-78
2023/11/30 10:33:23;;;;;;;2.80;1.80;;;3.20;99.90;;;;;;5036731;28;20452;-78
2023/11/30 10:35:52;;;;;;;0.53;0.53;;;3.20;99.90;;;;;;5036538;28;20503;-78
2023/11/30 10:38:22;;;;;;;1.00;0.90;;;3.20;99.90;;;;;;5036088;28;20439;-78
2023/11/30 10:40:54;;;;;;;0.80;0.80;;;3.30;99.90;;;;;;5036381;28;20427;-78
2023/11/30 10:43:24;;;;;;;1.13;0.83;;;3.20;99.90;;;;;;5036382;28;20431;-78
2023/11/30 10:45:53;;;;;;;1.50;1.07;;;3.20;99.90;;;;;;5036297;28;20468;-78
2023/11/30 10:48:23;;;;;;;1.70;1.20;;;3.30;99.90;;;;;;5035865;28;20515;-78
2023/11/30 10:50:51;;;;;;;3.00;1.70;;;3.30;99.90;;;;;;5035944;28;20454;-78
2023/11/30 10:53:31;;;;;;;0.90;0.77;;;3.30;99.90;;;;;;5035484;28;20485;-78
2023/11/30 10:56:00;;;;;;;1.70;1.47;;;3.30;99.90;;;;;;5036102;28;20884;-78
2023/11/30 10:58:27;;;;;;;1.90;1.03;;;3.30;99.90;;;;;;5036264;28;20461;-78
2023/11/30 11:00:57;;;;;;;2.10;1.17;;;3.30;99.90;;;;;;5035632;28;20966;-78
2023/11/30 11:03:25;;;;;;;2.80;1.03;;;3.20;99.90;;;;;;5036029;28;20419;-78
2023/11/30 11:05:52;;;;;;;3.60;1.37;;;3.20;99.90;;;;;;5035982;28;20443;-78
2023/11/30 11:08:19;;;;;;;7.03;1.97;;;3.20;99.90;;;;;;5035555;28;20482;-78
2023/11/30 11:10:48;;;;;;;1.50;1.10;;;3.20;99.90;;;;;;5035555;28;20970;-78
2023/11/30 11:13:23;;;;;;;1.00;0.83;;;3.10;99.90;;;;;;5037309;28;20474;-78
2023/11/30 11:16:00;;;;;;;0.73;0.73;;;3.10;99.90;;;;;;5037058;28;20828;-78
2023/11/30 11:18:31;;;;;;;4.10;1.43;;;3.10;99.90;;;;;;5036088;28;20880;-78
2023/11/30 11:20:58;;;;;;;1.27;0.80;;;3.20;99.90;;;;;;5035370;28;20921;-78
2023/11/30 11:23:33;;;;;;;2.90;1.47;;;3.20;99.90;;;;;;5035523;28;20454;-78
2023/11/30 11:26:03;;;;;;;0.80;0.80;;;3.20;99.90;;;;;;5036711;28;20435;-78
2023/11/30 11:28:31;;;;;;;1.73;0.77;;;3.20;99.90;;;;;;5035697;28;20474;-78
2023/11/30 11:30:58;;;;;;;1.40;1.30;;;3.30;99.90;;;;;;5035382;28;20461;-78
2023/11/30 11:33:26;;;;;;;0.70;0.70;;;3.30;99.90;;;;;;5035419;28;20451;-78
2023/11/30 11:35:52;;;;;;;4.23;1.20;;;3.30;99.90;;;;;;5035371;28;20447;-78
2023/11/30 11:38:19;;;;;;;1.53;0.90;;;3.40;99.90;;;;;;5035262;28;20450;-78
2023/11/30 11:40:46;;;;;;;0.73;0.73;;;3.40;99.90;;;;;;5035922;28;20446;-79
2023/11/30 11:43:13;;;;;;;0.40;0.40;;;3.50;99.90;;;;;;5035146;28;20502;-78
2023/11/30 11:45:41;;;;;;;2.40;2.20;;;3.50;99.90;;;;;;5035315;28;20439;-77
2023/11/30 11:48:11;;;;;;;1.53;1.03;;;3.50;99.90;;;;;;5034959;28;20493;-78
2023/11/30 11:50:38;;;;;;;0.73;0.73;;;3.50;99.90;;;;;;5035091;28;20435;-78
2023/11/30 11:53:06;;;;;;;1.13;1.13;;;3.60;99.90;;;;;;5034591;28;20485;-77
2023/11/30 11:55:33;;;;;;;2.57;0.70;;;3.60;99.90;;;;;;5034621;28;20497;-77
2023/11/30 11:58:00;;;;;;;1.47;1.10;;;3.70;99.90;;;;;;5035106;28;20447;-78
2023/11/30 12:00:26;;;;;;;1.37;1.03;;;3.70;99.90;;;;;;5035785;28;20446;-78
2023/11/30 12:03:04;;;;;;;0.97;0.90;;;3.80;99.90;;;;;;5037470;28;20490;-77
2023/11/30 12:05:31;;;;;;;0.80;0.80;;;3.80;99.90;;;;;;5035061;28;20437;-77
2023/11/30 12:08:00;;;;;;;1.20;1.20;;;3.80;99.90;;;;;;5035951;28;20478;-78
2023/11/30 12:10:44;;;;;;;1.70;1.60;;;3.70;99.90;;;;;;5040180;28;20457;-81
2023/11/30 12:13:16;;;;;;;3.83;0.70;;;3.60;99.90;;;;;;5052337;28;20542;-79
2023/11/30 12:19:20;;;;;;;0.50;0.50;;;3.60;99.90;;;;;;5058346;28;20414;-81
2023/11/30 12:21:47;;;;;;;2.00;1.77;;;3.60;99.90;;;;;;5035719;28;21058;-79
2023/11/30 12:24:14;;;;;;;2.20;1.07;;;3.60;99.90;;;;;;5034516;28;20447;-78
2023/11/30 12:26:41;;;;;;;1.70;1.20;;;3.60;99.90;;;;;;5034928;28;20446;-79
2023/11/30 12:29:08;;;;;;;0.47;0.47;;;3.70;99.90;;;;;;5034829;28;20458;-79
2023/11/30 12:31:36;;;;;;;5.40;0.70;;;3.70;99.90;;;;;;5040820;28;20447;-79
2023/11/30 12:34:04;;;;;;;1.20;1.10;;;3.70;99.90;;;;;;5034563;28;20438;-79
2023/11/30 12:36:32;;;;;;;0.80;0.80;;;3.70;99.90;;;;;;5038968;28;21022;-78
2023/11/30 12:38:59;;;;;;;1.17;0.80;;;3.90;99.90;;;;;;5035054;28;20935;-78
2023/11/30 12:41:25;;;;;;;3.33;1.00;;;3.90;99.90;;;;;;5034159;28;21006;-78
2023/11/30 12:43:52;;;;;;;1.53;1.33;;;4.00;99.90;;;;;;5034986;28;20452;-78
2023/11/30 12:46:20;;;;;;;1.13;1.07;;;4.00;99.90;;;;;;5034350;28;20447;-78
2023/11/30 12:48:46;;;;;;;0.97;0.87;;;4.10;99.90;;;;;;5034830;28;20843;-78
2023/11/30 12:51:13;;;;;;;1.33;1.20;;;4.10;99.90;;;;;;5034046;28;20442;-78
2023/11/30 12:53:41;;;;;;;1.13;1.13;;;4.20;99.90;;;;;;5034936;28;20809;-78
2023/11/30 12:56:08;;;;;;;1.77;0.90;;;4.10;99.90;;;;;;5034313;28;20446;-78
2023/11/30 12:58:36;;;;;;;0.53;0.50;;;4.10;99.90;;;;;;5034232;28;20460;-78
2023/11/30 13:01:02;;;;;;;2.63;0.70;;;4.10;99.90;;;;;;5035195;28;20443;-77